»·PEaware :: QXE2303 KRDM-KPDX

QXE2303 :: KRDM-KPDX

FLIGHT INFORMATION

Flight Status: Arrived
Operator:
Horizon Air
More flights by this operator :: More flights under this callsign
Pilot: Doug L. (8712)
Aircraft: DEHAVILLAND DASH 8 400
(DH8D)
More flights by this aircraft type
Origin: KRDM Roberts
United States
Destination: KPDX Portland Intl
United States
More flights between these airports :: More routes between these airports
Route: DSD V165 MAVER V448 BTG
File this flight plan on PilotEdge
Remarks:
Altitude:
(Current/Filed)
16,000ft
Speed:
(Current/Filed)
330kts
Departed: 12-Feb-19 06:32 PM
Arrived: 12-Feb-19 07:07 PM
Distance/Time
Traveled:
101nm/0:34
Distance/Time
To Go:
Arrived

Flight Plot

Page will automatically refresh every two minutes.

Flight plan parsing failed; only flown route is shown


Map Options




Map Legend


Flown Route
Filed Route
Departure Airport
Arrival Airport
Navaid (VOR, NDB)
Fix

Horizontal Profiles

Position Reports

Time Latitude Longitude Heading Altitude Ground
Speed
12-Feb-19 17:59 44.252279 -121.161591 328 3084ft 0kts
12-Feb-19 18:00 44.252279 -121.161591 328 3084ft 0kts
12-Feb-19 18:01 44.252279 -121.161591 328 3084ft 0kts
12-Feb-19 18:02 44.252279 -121.161591 328 3084ft 0kts
12-Feb-19 18:03 44.252279 -121.161591 328 3084ft 0kts
12-Feb-19 18:04 44.252279 -121.161591 328 3084ft 0kts
12-Feb-19 18:05 44.252279 -121.161591 328 3084ft 0kts
12-Feb-19 18:06 44.252279 -121.161591 328 3084ft 0kts
12-Feb-19 18:07 44.252279 -121.161591 328 3084ft 0kts
12-Feb-19 18:08 44.252279 -121.161591 328 3084ft 0kts
12-Feb-19 18:09 44.252279 -121.161591 328 3084ft 0kts
12-Feb-19 18:10 44.252279 -121.161591 328 3084ft 0kts
12-Feb-19 18:11 44.252279 -121.161591 328 3084ft 0kts
12-Feb-19 18:12 44.252279 -121.161591 328 3084ft 0kts
12-Feb-19 18:13 44.252279 -121.161591 328 3084ft 0kts
12-Feb-19 18:14 44.252279 -121.161591 328 3084ft 0kts
12-Feb-19 18:15 44.252279 -121.161591 328 3084ft 0kts
12-Feb-19 18:16 44.252279 -121.161591 328 3084ft 0kts
12-Feb-19 18:17 44.252279 -121.161591 328 3084ft 0kts
12-Feb-19 18:18 44.252279 -121.161591 328 3084ft 0kts
12-Feb-19 18:19 44.252279 -121.161591 328 3084ft 0kts
12-Feb-19 18:20 44.252279 -121.161591 328 3084ft 0kts
12-Feb-19 18:21 44.252279 -121.161591 328 3084ft 0kts
12-Feb-19 18:22 44.252279 -121.161591 328 3084ft 0kts
12-Feb-19 18:23 44.252279 -121.161591 328 3084ft 0kts
12-Feb-19 18:24 44.252351 -121.161652 329 3084ft 0kts
12-Feb-19 18:25 44.251703 -121.161249 123 3084ft 12kts
12-Feb-19 18:26 44.252586 -121.157379 94 3084ft 11kts
12-Feb-19 18:27 44.253069 -121.155954 59 3084ft 8kts
12-Feb-19 18:28 44.256704 -121.147053 60 3084ft 35kts
12-Feb-19 18:29 44.259387 -121.140723 59 3084ft 0kts
12-Feb-19 18:30 44.259184 -121.138996 151 3084ft 11kts
12-Feb-19 18:31 44.252079 -121.155563 241 3196ft 129kts
12-Feb-19 18:32 44.228332 -121.203180 230 5481ft 162kts
12-Feb-19 18:33 44.213987 -121.258968 291 8477ft 177kts
12-Feb-19 18:34 44.252660 -121.304820 309 11260ft 178kts
12-Feb-19 18:35 44.287269 -121.353253 298 13429ft 175kts
12-Feb-19 18:36 44.321092 -121.403802 297 15256ft 178kts
12-Feb-19 18:37 44.357444 -121.459397 298 16009ft 223kts
12-Feb-19 18:38 44.404900 -121.531134 302 16015ft 280kts
12-Feb-19 18:39 44.461584 -121.614171 303 16016ft 309kts
12-Feb-19 18:40 44.521226 -121.703034 303 16021ft 322kts
12-Feb-19 18:41 44.582601 -121.794966 303 16031ft 326kts
12-Feb-19 18:42 44.643952 -121.887285 304 16032ft 325kts
12-Feb-19 18:44 44.703287 -121.976888 304 15998ft 314kts
12-Feb-19 18:45 44.761060 -122.064084 302 15994ft 303kts
12-Feb-19 18:46 44.816470 -122.148398 302 15986ft 294kts
12-Feb-19 18:47 44.871938 -122.233598 302 15215ft 311kts
12-Feb-19 18:48 44.931757 -122.325570 305 13433ft 327kts
12-Feb-19 18:49 45.003126 -122.394977 326 11649ft 310kts
12-Feb-19 18:50 45.074255 -122.446174 325 10101ft 273kts
12-Feb-19 18:51 45.139413 -122.494261 326 10002ft 278kts
12-Feb-19 18:52 45.207330 -122.544785 324 9985ft 290kts
12-Feb-19 18:53 45.274184 -122.595312 326 10005ft 293kts
12-Feb-19 18:54 45.346045 -122.650992 326 8421ft 289kts
12-Feb-19 18:55 45.408590 -122.700917 326 6613ft 246kts
12-Feb-19 18:56 45.464716 -122.746053 325 4869ft 239kts
12-Feb-19 18:57 45.519237 -122.796995 315 4015ft 221kts
12-Feb-19 18:58 45.564123 -122.850503 315 3771ft 214kts
12-Feb-19 18:59 45.608445 -122.904708 316 3026ft 198kts
12-Feb-19 19:00 45.654474 -122.936207 22 2983ft 198kts
12-Feb-19 19:00 45.687873 -122.892725 82 2978ft 201kts
12-Feb-19 19:01 45.674030 -122.828727 119 2997ft 198kts
12-Feb-19 19:03 45.647402 -122.755993 121 2124ft 167kts
12-Feb-19 19:04 45.628394 -122.708657 125 1525ft 144kts
12-Feb-19 19:04 45.613215 -122.669955 116 927ft 136kts
12-Feb-19 19:05 45.595941 -122.623511 119 120ft 131kts
12-Feb-19 19:06 45.587970 -122.602126 92 37ft 23kts
12-Feb-19 19:07 45.587927 -122.599428 66 37ft 7kts
12-Feb-19 19:08 45.585858 -122.593021 129 37ft 13kts
12-Feb-19 19:09 45.585476 -122.591280 79 37ft 0kts
12-Feb-19 19:10 45.585476 -122.591280 79 37ft 0kts

Navigation Log

Ident Type
Flight plan parsing failed, navigation log unavailable